Terminal Aerodrome Forecast
Issued by NWS Mt. Holly, NJ

Home | Current Version | Previous Version | Text Only | Print | Product List | Glossary On
Versions: 1 2 3 4 5 6 7 8 9 10 11 12 13 14 15 16 17 18 19 20 21 22
000
FTUS41 KPHI 270524
TAFACY
TAF
KACY 270524Z 2706/2806 32008KT P6SM -RA SCT012 OVC060
      TEMPO 2706/2710 4SM -RA BR OVC012
     FM271000 34010KT P6SM -RA SCT020 BKN060
      TEMPO 2710/2714 4SM -RA BR OVC020
     FM271400 34010G18KT P6SM -SHRA OVC035
     FM271800 33010G18KT P6SM BKN045
     FM280000 34008KT P6SM SCT045 BKN100=

USA.gov is the U.S. government's official web portal to all federal, state and local government web resources and services.